createdAt,value
2018-07-15T00:00:34.728Z,0
2018-07-15T00:01:34.710Z,0
2018-07-15T00:02:34.698Z,0
2018-07-15T00:03:34.448Z,0
2018-07-15T00:04:34.714Z,0
2018-07-15T00:05:34.698Z,0
2018-07-15T00:06:34.431Z,0
2018-07-15T00:07:34.673Z,0
2018-07-15T00:08:34.718Z,0
2018-07-15T00:09:34.668Z,0
2018-07-15T00:10:34.434Z,0
2018-07-15T00:11:34.647Z,0
2018-07-15T00:12:34.652Z,0
2018-07-15T00:13:34.641Z,0
2018-07-15T00:14:34.386Z,0
2018-07-15T00:15:34.634Z,0
2018-07-15T00:16:34.638Z,0
2018-07-15T00:17:34.389Z,0
2018-07-15T00:18:34.873Z,0
2018-07-15T00:19:34.112Z,0
2018-07-15T00:20:34.361Z,0
2018-07-15T00:21:34.358Z,0
2018-07-15T00:22:34.604Z,0
2018-07-15T00:23:34.353Z,0
2018-07-15T00:24:34.599Z,0
2018-07-15T00:25:34.586Z,0
2018-07-15T00:26:34.590Z,0
2018-07-15T00:27:34.329Z,0
2018-07-15T00:28:34.571Z,0
2018-07-15T00:29:34.574Z,0
2018-07-15T00:30:34.560Z,0
2018-07-15T00:31:34.555Z,0
2018-07-15T00:32:34.566Z,0
2018-07-15T00:33:34.554Z,0
2018-07-15T00:34:34.308Z,0
2018-07-15T00:35:34.276Z,0
2018-07-15T00:36:34.534Z,0
2018-07-15T00:37:34.523Z,0
2018-07-15T00:38:34.514Z,0
2018-07-15T00:39:34.518Z,0
2018-07-15T00:40:34.512Z,0
2018-07-15T00:41:34.510Z,0
2018-07-15T00:42:34.498Z,0
2018-07-15T00:43:34.499Z,0
2018-07-15T00:44:34.268Z,0
2018-07-15T00:45:34.475Z,0
2018-07-15T00:46:34.485Z,0
2018-07-15T00:47:34.468Z,0
2018-07-15T00:48:34.207Z,0
2018-07-15T00:49:34.464Z,0
2018-07-15T00:50:34.458Z,0
2018-07-15T00:51:34.446Z,0
2018-07-15T00:52:34.442Z,0
2018-07-15T00:53:34.192Z,0
2018-07-15T00:54:34.434Z,0
2018-07-15T00:55:34.508Z,0
2018-07-15T00:56:34.424Z,0
2018-07-15T00:57:34.170Z,0
2018-07-15T00:58:34.419Z,0
2018-07-15T00:59:34.152Z,0
2018-07-15T01:00:34.156Z,0
2018-07-15T01:01:34.401Z,0
2018-07-15T01:02:34.404Z,0
2018-07-15T01:03:34.131Z,0
2018-07-15T01:04:34.377Z,0
2018-07-15T01:05:34.122Z,0
2018-07-15T01:06:34.111Z,0
2018-07-15T01:07:34.369Z,0
2018-07-15T01:08:34.360Z,0
2018-07-15T01:09:34.098Z,0
2018-07-15T01:10:34.349Z,0
2018-07-15T01:11:34.342Z,0
2018-07-15T01:12:34.082Z,0
2018-07-15T01:13:34.324Z,0
2018-07-15T01:14:33.819Z,0
2018-07-15T01:15:34.315Z,0
2018-07-15T01:16:34.313Z,0
2018-07-15T01:17:34.337Z,0
2018-07-15T01:18:34.299Z,0
2018-07-15T01:19:34.295Z,0
2018-07-15T01:20:34.039Z,0
2018-07-15T01:21:34.545Z,0
2018-07-15T01:22:34.297Z,0
2018-07-15T01:23:34.044Z,0
2018-07-15T01:24:34.018Z,0
2018-07-15T01:25:34.259Z,0
2018-07-15T01:26:33.753Z,0
2018-07-15T01:27:33.998Z,0
2018-07-15T01:28:33.992Z,0
2018-07-15T01:29:34.302Z,0
2018-07-15T01:30:34.233Z,0
2018-07-15T01:31:33.978Z,0
2018-07-15T01:32:34.220Z,0
2018-07-15T01:33:34.226Z,0
2018-07-15T01:34:34.212Z,0
2018-07-15T01:35:34.210Z,0
2018-07-15T01:36:34.256Z,0
2018-07-15T01:37:33.955Z,0
2018-07-15T01:38:33.935Z,0
2018-07-15T01:39:33.680Z,0
2018-07-15T01:40:33.930Z,0
2018-07-15T01:41:33.918Z,0
2018-07-15T01:42:33.912Z,0
2018-07-15T01:43:34.173Z,0
2018-07-15T01:44:34.170Z,0
2018-07-15T01:45:34.157Z,0
2018-07-15T01:46:34.142Z,0
2018-07-15T01:47:34.137Z,0
2018-07-15T01:48:33.880Z,0
2018-07-15T01:49:33.881Z,0
2018-07-15T01:50:34.117Z,0
2018-07-15T01:51:33.862Z,0
2018-07-15T01:52:34.359Z,0
2018-07-15T01:53:34.106Z,0
2018-07-15T01:54:33.848Z,0
2018-07-15T01:55:33.844Z,0
2018-07-15T01:56:33.839Z,0
2018-07-15T01:57:34.081Z,0
2018-07-15T01:58:33.829Z,0
2018-07-15T01:59:34.080Z,0
2018-07-15T02:00:34.072Z,0
2018-07-15T02:01:34.064Z,0
2018-07-15T02:02:34.056Z,0
2018-07-15T02:03:34.055Z,0
2018-07-15T02:04:33.538Z,0
2018-07-15T02:05:34.061Z,0
2018-07-15T02:06:33.783Z,0
2018-07-15T02:07:34.029Z,0
2018-07-15T02:08:34.018Z,0
2018-07-15T02:09:33.772Z,0
2018-07-15T02:10:34.012Z,0
2018-07-15T02:11:33.757Z,0
2018-07-15T02:12:33.749Z,0
2018-07-15T02:13:33.747Z,0
2018-07-15T02:14:33.738Z,0
2018-07-15T02:15:33.985Z,0
2018-07-15T02:16:33.983Z,0
2018-07-15T02:17:33.719Z,0
2018-07-15T02:18:33.970Z,0
2018-07-15T02:19:33.963Z,0
2018-07-15T02:20:33.960Z,0
2018-07-15T02:21:33.947Z,0
2018-07-15T02:22:33.439Z,0
2018-07-15T02:23:34.229Z,0
2018-07-15T02:24:33.728Z,0
2018-07-15T02:25:33.926Z,0
2018-07-15T02:26:33.923Z,0
2018-07-15T02:27:33.912Z,0
2018-07-15T02:28:33.906Z,0
2018-07-15T02:29:33.925Z,0
2018-07-15T02:30:33.903Z,0
2018-07-15T02:31:33.700Z,0
2018-07-15T02:32:33.638Z,0
2018-07-15T02:33:33.890Z,0
2018-07-15T02:34:33.622Z,0
2018-07-15T02:35:33.874Z,0
2018-07-15T02:36:33.997Z,0
2018-07-15T02:37:33.358Z,0
2018-07-15T02:38:33.862Z,0
2018-07-15T02:39:33.381Z,0
2018-07-15T02:40:33.839Z,0
2018-07-15T02:41:33.847Z,0
2018-07-15T02:42:33.577Z,0
2018-07-15T02:43:33.569Z,0
2018-07-15T02:44:33.322Z,0
2018-07-15T02:45:33.808Z,0
2018-07-15T02:46:33.563Z,0
2018-07-15T02:47:33.800Z,0
2018-07-15T02:48:33.540Z,0
2018-07-15T02:49:33.550Z,0
2018-07-15T02:50:33.538Z,5
2018-07-15T02:51:33.779Z,5
2018-07-15T02:52:33.524Z,5
2018-07-15T02:53:33.507Z,5
2018-07-15T02:54:33.766Z,5
2018-07-15T02:55:33.517Z,5
2018-07-15T02:56:33.487Z,5
2018-07-15T02:57:33.233Z,5
2018-07-15T02:58:33.732Z,5
2018-07-15T02:59:33.221Z,10
2018-07-15T03:00:33.477Z,10
2018-07-15T03:01:33.481Z,10
2018-07-15T03:02:33.464Z,10
2018-07-15T03:03:33.453Z,10
2018-07-15T03:04:33.453Z,10
2018-07-15T03:05:33.456Z,15
2018-07-15T03:06:33.687Z,15
2018-07-15T03:07:33.439Z,15
2018-07-15T03:08:33.179Z,15
2018-07-15T03:09:33.414Z,15
2018-07-15T03:10:33.688Z,20
2018-07-15T03:11:33.402Z,20
2018-07-15T03:12:33.666Z,20
2018-07-15T03:13:33.395Z,25
2018-07-15T03:14:33.644Z,25
2018-07-15T03:15:33.712Z,25
2018-07-15T03:16:33.385Z,30
2018-07-15T03:17:33.914Z,30
2018-07-15T03:18:33.114Z,30
2018-07-15T03:19:33.650Z,35
2018-07-15T03:20:33.363Z,35
2018-07-15T03:21:33.356Z,35
2018-07-15T03:22:33.353Z,40
2018-07-15T03:23:33.591Z,40
2018-07-15T03:24:33.349Z,40
2018-07-15T03:25:33.318Z,40
2018-07-15T03:26:33.563Z,40
2018-07-15T03:27:33.573Z,45
2018-07-15T03:28:33.298Z,45
2018-07-15T03:29:33.551Z,45
2018-07-15T03:30:33.559Z,50
2018-07-15T03:31:33.550Z,50
2018-07-15T03:32:33.031Z,50
2018-07-15T03:33:33.534Z,50
2018-07-15T03:34:33.529Z,50
2018-07-15T03:35:33.019Z,45
2018-07-15T03:36:33.510Z,50
2018-07-15T03:37:33.507Z,50
2018-07-15T03:38:33.494Z,60
2018-07-15T03:39:33.496Z,65
2018-07-15T03:40:33.235Z,65
2018-07-15T03:41:33.228Z,65
2018-07-15T03:42:33.221Z,65
2018-07-15T03:43:33.476Z,65
2018-07-15T03:44:33.208Z,65
2018-07-15T03:45:33.459Z,65
2018-07-15T03:46:33.463Z,70
2018-07-15T03:47:33.196Z,75
2018-07-15T03:48:32.939Z,85
2018-07-15T03:49:32.931Z,100
2018-07-15T03:50:33.176Z,90
2018-07-15T03:51:33.174Z,90
2018-07-15T03:52:33.421Z,85
2018-07-15T03:53:33.167Z,80
2018-07-15T03:54:32.903Z,75
2018-07-15T03:55:32.911Z,80
2018-07-15T03:56:33.146Z,85
2018-07-15T03:57:33.669Z,90
2018-07-15T03:58:33.135Z,95
2018-07-15T03:59:33.402Z,100
2018-07-15T04:00:33.436Z,105
2018-07-15T04:01:33.122Z,105
2018-07-15T04:02:33.368Z,110
2018-07-15T04:03:33.113Z,115
2018-07-15T04:04:32.858Z,125
2018-07-15T04:05:33.104Z,130
2018-07-15T04:06:32.847Z,130
2018-07-15T04:07:33.354Z,130
2018-07-15T04:08:33.029Z,130
2018-07-15T04:09:33.095Z,130
2018-07-15T04:10:33.088Z,135
2018-07-15T04:11:33.084Z,135
2018-07-15T04:12:33.085Z,130
2018-07-15T04:13:33.066Z,130
2018-07-15T04:14:33.067Z,130
2018-07-15T04:15:33.059Z,135
2018-07-15T04:16:33.308Z,140
2018-07-15T04:17:33.298Z,145
2018-07-15T04:18:33.302Z,135
2018-07-15T04:19:33.300Z,145
2018-07-15T04:20:33.037Z,175
2018-07-15T04:21:33.036Z,140
2018-07-15T04:22:33.031Z,145
2018-07-15T04:23:33.292Z,150
2018-07-15T04:24:33.282Z,150
2018-07-15T04:25:32.513Z,155
2018-07-15T04:26:33.274Z,170
2018-07-15T04:27:33.274Z,170
2018-07-15T04:28:33.449Z,185
2018-07-15T04:29:32.754Z,185
2018-07-15T04:30:32.743Z,270
2018-07-15T04:31:32.749Z,350
2018-07-15T04:32:32.742Z,350
2018-07-15T04:33:32.735Z,315
2018-07-15T04:34:32.987Z,205
2018-07-15T04:35:32.992Z,205
2018-07-15T04:36:32.980Z,210
2018-07-15T04:37:32.975Z,205
2018-07-15T04:38:32.980Z,190
2018-07-15T04:39:32.971Z,175
2018-07-15T04:40:33.239Z,170
2018-07-15T04:41:32.729Z,160
2018-07-15T04:42:33.212Z,160
2018-07-15T04:43:33.038Z,165
2018-07-15T04:44:32.710Z,180
2018-07-15T04:45:32.723Z,195
2018-07-15T04:46:33.215Z,225
2018-07-15T04:47:32.954Z,260
2018-07-15T04:48:32.949Z,285
2018-07-15T04:49:33.197Z,340
2018-07-15T04:50:32.976Z,300
2018-07-15T04:51:33.197Z,320
2018-07-15T04:52:33.205Z,355
2018-07-15T04:53:32.937Z,550
2018-07-15T04:54:32.966Z,470
2018-07-15T04:55:33.188Z,295
2018-07-15T04:56:32.936Z,305
2018-07-15T04:57:32.940Z,305
2018-07-15T04:58:32.943Z,310
2018-07-15T04:59:33.222Z,345
2018-07-15T05:00:33.187Z,355
2018-07-15T05:01:32.923Z,375
2018-07-15T05:02:33.179Z,610
2018-07-15T05:03:33.183Z,535
2018-07-15T05:04:32.924Z,670
2018-07-15T05:05:33.185Z,350
2018-07-15T05:06:32.669Z,575
2018-07-15T05:07:33.178Z,460
2018-07-15T05:09:32.678Z,670
2018-07-15T05:10:32.676Z,660
2018-07-15T05:11:33.055Z,740
2018-07-15T05:12:33.187Z,635
2018-07-15T05:13:32.937Z,590
2018-07-15T05:14:32.951Z,595
2018-07-15T05:15:33.190Z,700
2018-07-15T05:16:33.196Z,685
2018-07-15T05:17:32.948Z,680
2018-07-15T05:18:33.543Z,750
2018-07-15T05:19:32.989Z,770
2018-07-15T05:20:33.265Z,560
2018-07-15T05:21:33.221Z,780
2018-07-15T05:22:33.025Z,815
2018-07-15T05:23:32.722Z,665
2018-07-15T05:24:32.727Z,745
2018-07-15T05:25:33.242Z,690
2018-07-15T05:26:33.241Z,780
2018-07-15T05:27:33.249Z,760
2018-07-15T05:28:33.259Z,650
2018-07-15T05:29:32.758Z,780
2018-07-15T05:30:33.520Z,805
2018-07-15T05:31:33.026Z,815
2018-07-15T05:32:33.031Z,800
2018-07-15T05:33:33.052Z,795
2018-07-15T05:34:32.801Z,820
2018-07-15T05:35:33.058Z,860
2018-07-15T05:36:32.814Z,860
2018-07-15T05:37:33.328Z,870
2018-07-15T05:38:33.084Z,895
2018-07-15T05:39:33.355Z,900
2018-07-15T05:40:33.361Z,880
2018-07-15T05:41:33.154Z,880
2018-07-15T05:42:33.124Z,910
2018-07-15T05:43:33.396Z,915
2018-07-15T05:44:33.593Z,895
2018-07-15T05:45:33.159Z,940
2018-07-15T05:46:33.422Z,945
2018-07-15T05:47:33.422Z,930
2018-07-15T05:48:33.182Z,860
2018-07-15T05:49:33.449Z,590
2018-07-15T05:50:33.216Z,865
2018-07-15T05:51:33.469Z,930
2018-07-15T05:52:33.234Z,935
2018-07-15T05:53:33.235Z,900
2018-07-15T05:54:33.248Z,905
2018-07-15T05:55:33.015Z,900
2018-07-15T05:56:33.274Z,915
2018-07-15T05:57:33.537Z,925
2018-07-15T05:58:33.551Z,950
2018-07-15T05:59:33.562Z,970
2018-07-15T06:00:33.570Z,980
2018-07-15T06:01:46.577Z,990
2018-07-15T06:02:33.344Z,995
2018-07-15T06:03:34.034Z,1005
2018-07-15T06:04:33.134Z,1010
2018-07-15T06:05:33.129Z,1000
2018-07-15T06:06:33.638Z,1010
2018-07-15T06:07:33.658Z,1015
2018-07-15T06:08:33.165Z,1025
2018-07-15T06:09:33.435Z,1020
2018-07-15T06:10:33.711Z,1020
2018-07-15T06:11:33.212Z,1030
2018-07-15T06:12:33.207Z,1030
2018-07-15T06:13:33.721Z,1030
2018-07-15T06:14:33.233Z,1045
2018-07-15T06:15:33.771Z,1055
2018-07-15T06:16:33.764Z,1070
2018-07-15T06:17:33.781Z,1080
2018-07-15T06:18:33.540Z,1075
2018-07-15T06:19:32.801Z,1095
2018-07-15T06:20:33.820Z,1110
2018-07-15T06:21:33.573Z,1130
2018-07-15T06:22:33.670Z,1145
2018-07-15T06:23:33.646Z,1160
2018-07-15T06:24:33.355Z,1160
2018-07-15T06:25:33.877Z,1155
2018-07-15T06:26:33.635Z,1160
2018-07-15T06:27:33.399Z,1165
2018-07-15T06:28:33.911Z,1175
2018-07-15T06:29:34.008Z,1170
2018-07-15T06:30:33.996Z,1180
2018-07-15T06:31:33.716Z,1200
2018-07-15T06:32:36.452Z,1190
2018-07-15T06:33:33.976Z,1195
2018-07-15T06:34:33.999Z,1210
2018-07-15T06:35:33.760Z,1215
2018-07-15T06:36:34.025Z,1240
2018-07-15T06:37:34.041Z,1240
2018-07-15T06:38:34.047Z,1230
2018-07-15T06:39:33.810Z,1255
2018-07-15T06:40:34.082Z,1260
2018-07-15T06:41:34.093Z,1250
2018-07-15T06:42:34.105Z,1240
2018-07-15T06:43:33.862Z,1250
2018-07-15T06:44:34.133Z,1240
2018-07-15T06:45:34.167Z,1255
2018-07-15T06:46:35.435Z,1285
2018-07-15T06:47:33.922Z,1295
2018-07-15T06:48:33.686Z,1310
2018-07-15T06:49:33.959Z,1310
2018-07-15T06:50:34.819Z,1310
2018-07-15T06:51:33.997Z,1335
2018-07-15T06:52:34.238Z,1340
2018-07-15T06:53:34.276Z,1220
2018-07-15T06:54:34.022Z,1335
2018-07-15T06:55:34.299Z,1345
2018-07-15T06:56:34.299Z,1355
2018-07-15T06:57:34.309Z,1350
2018-07-15T06:58:34.353Z,1355
2018-07-15T06:59:33.577Z,1340
2018-07-15T07:00:47.092Z,1330
2018-07-15T07:01:34.025Z,1430
2018-07-15T07:02:34.391Z,365
2018-07-15T07:03:34.645Z,1440
2018-07-15T07:04:34.429Z,1465
2018-07-15T07:05:34.434Z,355
2018-07-15T07:06:34.451Z,1480
2018-07-15T07:07:34.952Z,1455
2018-07-15T07:08:34.210Z,1350
2018-07-15T07:09:34.222Z,1470
2018-07-15T07:10:33.998Z,1465
2018-07-15T07:11:34.507Z,1460
2018-07-15T07:12:34.263Z,1485
2018-07-15T07:13:34.524Z,1500
2018-07-15T07:14:34.310Z,1495
2018-07-15T07:15:34.559Z,1490
2018-07-15T07:16:34.315Z,1495
2018-07-15T07:17:34.586Z,1505
2018-07-15T07:18:34.585Z,1520
2018-07-15T07:19:34.354Z,1530
2018-07-15T07:20:34.687Z,1530
2018-07-15T07:21:34.630Z,1525
2018-07-15T07:22:34.137Z,1525
2018-07-15T07:23:34.407Z,1525
2018-07-15T07:24:34.665Z,1530
2018-07-15T07:25:34.693Z,1525
2018-07-15T07:26:34.444Z,1525
2018-07-15T07:27:34.454Z,1510
2018-07-15T07:28:34.218Z,1355
2018-07-15T07:29:34.477Z,1520
2018-07-15T07:30:34.485Z,1535
2018-07-15T07:31:34.258Z,1460
2018-07-15T07:32:34.768Z,1555
2018-07-15T07:33:34.774Z,1575
2018-07-15T07:34:34.870Z,1610
2018-07-15T07:35:34.934Z,1590
2018-07-15T07:36:34.828Z,1595
2018-07-15T07:37:34.322Z,1600
2018-07-15T07:38:34.847Z,1605
2018-07-15T07:39:34.608Z,1620
2018-07-15T07:40:34.618Z,1655
2018-07-15T07:41:35.040Z,1670
2018-07-15T07:42:34.636Z,1695
2018-07-15T07:43:34.907Z,1695
2018-07-15T07:44:34.930Z,1700
2018-07-15T07:45:34.705Z,1670
2018-07-15T07:46:34.947Z,1705
2018-07-15T07:47:34.950Z,1725
2018-07-15T07:48:34.967Z,1735
2018-07-15T07:49:34.978Z,1750
2018-07-15T07:50:34.737Z,1790
2018-07-15T07:51:34.994Z,1805
2018-07-15T07:52:34.764Z,1840
2018-07-15T07:53:34.891Z,1810
2018-07-15T07:54:34.538Z,1815
2018-07-15T07:55:35.057Z,1815
2018-07-15T07:56:35.068Z,1825
2018-07-15T07:57:35.076Z,955
2018-07-15T07:58:35.071Z,1820
2018-07-15T07:59:34.858Z,1850
2018-07-15T08:00:35.112Z,1905
2018-07-15T08:01:35.116Z,765
2018-07-15T08:02:35.127Z,770
2018-07-15T08:03:34.386Z,1030
2018-07-15T08:04:34.906Z,1970
2018-07-15T08:05:35.168Z,2020
2018-07-15T08:06:35.460Z,2035
2018-07-15T08:07:35.025Z,2090
2018-07-15T08:08:35.205Z,2075
2018-07-15T08:09:34.985Z,865
2018-07-15T08:10:34.976Z,700
2018-07-15T08:11:34.995Z,1145
2018-07-15T08:12:35.250Z,1610
2018-07-15T08:13:35.258Z,405
2018-07-15T08:14:35.278Z,435
2018-07-15T08:15:35.289Z,1710
2018-07-15T08:16:35.292Z,460
2018-07-15T08:17:34.801Z,2035
2018-07-15T08:18:35.327Z,660
2018-07-15T08:19:34.824Z,660
2018-07-15T08:20:35.088Z,2025
2018-07-15T08:21:35.355Z,1980
2018-07-15T08:22:35.650Z,1920
2018-07-15T08:23:35.379Z,1915
2018-07-15T08:24:35.386Z,1910
2018-07-15T08:25:35.398Z,2005
2018-07-15T08:26:35.401Z,1990
2018-07-15T08:27:35.415Z,2005
2018-07-15T08:28:36.144Z,2040
2018-07-15T08:29:35.201Z,2040
2018-07-15T08:30:35.189Z,2025
2018-07-15T08:31:35.475Z,2015
2018-07-15T08:32:35.482Z,1995
2018-07-15T08:33:35.486Z,1990
2018-07-15T08:34:35.498Z,2030
2018-07-15T08:35:35.510Z,2050
2018-07-15T08:36:35.768Z,2035
2018-07-15T08:37:35.523Z,2100
2018-07-15T08:38:35.557Z,2095
2018-07-15T08:39:35.293Z,1675
2018-07-15T08:40:35.412Z,2045
2018-07-15T08:41:35.603Z,2075
2018-07-15T08:42:35.359Z,2095
2018-07-15T08:43:35.346Z,2085
2018-07-15T08:44:35.613Z,2085
2018-07-15T08:45:35.624Z,2095
2018-07-15T08:46:35.382Z,2115
2018-07-15T08:47:35.653Z,2130
2018-07-15T08:48:35.679Z,2130
2018-07-15T08:49:35.425Z,2130
2018-07-15T08:50:35.442Z,2105
2018-07-15T08:51:35.695Z,2055
2018-07-15T08:52:35.722Z,2045
2018-07-15T08:53:35.721Z,2050
2018-07-15T08:54:35.347Z,2060
2018-07-15T08:55:35.503Z,2085
2018-07-15T08:56:35.522Z,2100
2018-07-15T08:57:35.290Z,2090
2018-07-15T08:58:35.801Z,1615
2018-07-15T08:59:35.802Z,690
2018-07-15T09:00:35.557Z,260
2018-07-15T09:01:35.827Z,260
2018-07-15T09:02:35.597Z,265
2018-07-15T09:03:36.090Z,270
2018-07-15T09:04:35.878Z,265
2018-07-15T09:05:35.875Z,255
2018-07-15T09:06:35.897Z,265
2018-07-15T09:07:35.638Z,250
2018-07-15T09:08:36.169Z,245
2018-07-15T09:09:35.409Z,240
2018-07-15T09:10:35.923Z,235
2018-07-15T09:11:35.927Z,240
2018-07-15T09:12:36.162Z,245
2018-07-15T09:13:35.748Z,235
2018-07-15T09:14:35.446Z,240
2018-07-15T09:15:35.709Z,235
2018-07-15T09:16:35.460Z,230
2018-07-15T09:17:35.742Z,225
2018-07-15T09:18:36.004Z,225
2018-07-15T09:19:35.748Z,225
2018-07-15T09:20:35.990Z,220
2018-07-15T09:21:36.001Z,220
2018-07-15T09:22:36.010Z,220
2018-07-15T09:23:36.011Z,220
2018-07-15T09:24:36.025Z,220
2018-07-15T09:25:36.015Z,220
2018-07-15T09:26:35.812Z,215
2018-07-15T09:27:36.024Z,215
2018-07-15T09:28:36.042Z,215
2018-07-15T09:29:35.785Z,215
2018-07-15T09:30:35.791Z,215
2018-07-15T09:31:36.042Z,215
2018-07-15T09:32:36.042Z,210
2018-07-15T09:33:36.055Z,210
2018-07-15T09:34:35.545Z,210
2018-07-15T09:35:36.477Z,210
2018-07-15T09:36:36.052Z,210
2018-07-15T09:37:36.052Z,210
2018-07-15T09:38:35.800Z,205
2018-07-15T09:39:36.307Z,205
2018-07-15T09:40:35.815Z,205
2018-07-15T09:41:36.060Z,205
2018-07-15T09:42:35.812Z,205
2018-07-15T09:43:36.091Z,205
2018-07-15T09:44:36.017Z,205
2018-07-15T09:45:36.069Z,205
2018-07-15T09:46:35.817Z,205
2018-07-15T09:47:35.841Z,200
2018-07-15T09:48:36.061Z,200
2018-07-15T09:49:35.815Z,200
2018-07-15T09:50:36.081Z,200
2018-07-15T09:51:36.069Z,200
2018-07-15T09:52:35.818Z,200
2018-07-15T09:53:36.075Z,200
2018-07-15T09:54:35.851Z,200
2018-07-15T09:55:35.840Z,200
2018-07-15T09:56:36.104Z,200
2018-07-15T09:57:36.078Z,200
2018-07-15T09:58:35.683Z,200
2018-07-15T09:59:36.096Z,200
2018-07-15T10:00:36.094Z,200
2018-07-15T10:01:35.601Z,200
2018-07-15T10:02:35.585Z,200
2018-07-15T10:03:36.084Z,200
2018-07-15T10:04:36.107Z,200
2018-07-15T10:05:36.097Z,200
2018-07-15T10:06:36.100Z,200
2018-07-15T10:07:36.359Z,200
2018-07-15T10:08:36.125Z,205
2018-07-15T10:09:36.287Z,205
2018-07-15T10:10:36.546Z,200
2018-07-15T10:11:36.091Z,195
2018-07-15T10:12:36.098Z,195
2018-07-15T10:13:36.096Z,195
2018-07-15T10:14:35.849Z,190
2018-07-15T10:15:35.839Z,190
2018-07-15T10:16:35.588Z,190
2018-07-15T10:17:35.585Z,190
2018-07-15T10:18:36.093Z,190
2018-07-15T10:19:35.839Z,190
2018-07-15T10:20:35.593Z,190
2018-07-15T10:21:35.599Z,190
2018-07-15T10:22:36.095Z,190
2018-07-15T10:23:36.108Z,190
2018-07-15T10:24:36.099Z,190
2018-07-15T10:25:36.095Z,190
2018-07-15T10:26:36.298Z,190
2018-07-15T10:27:35.854Z,190
2018-07-15T10:28:35.595Z,190
2018-07-15T10:29:35.853Z,190
2018-07-15T10:30:35.846Z,190
2018-07-15T10:31:35.848Z,190
2018-07-15T10:32:35.843Z,190
2018-07-15T10:33:36.101Z,190
2018-07-15T10:34:35.603Z,190
2018-07-15T10:35:36.100Z,190
2018-07-15T10:36:36.117Z,190
2018-07-15T10:37:36.118Z,190
2018-07-15T10:38:36.114Z,195
2018-07-15T10:39:35.609Z,205
2018-07-15T10:40:36.105Z,210
2018-07-15T10:41:36.358Z,220
2018-07-15T10:42:36.102Z,220
2018-07-15T10:43:36.100Z,215
2018-07-15T10:44:36.364Z,220
2018-07-15T10:45:36.102Z,225
2018-07-15T10:46:36.119Z,235
2018-07-15T10:47:35.600Z,245
2018-07-15T10:48:36.116Z,245
2018-07-15T10:49:36.118Z,215
2018-07-15T10:50:36.110Z,205
2018-07-15T10:51:36.146Z,195
2018-07-15T10:52:36.180Z,190
2018-07-15T10:53:36.119Z,190
2018-07-15T10:54:35.869Z,190
2018-07-15T10:55:35.857Z,190
2018-07-15T10:56:36.617Z,190
2018-07-15T10:57:36.160Z,190
2018-07-15T10:58:36.113Z,190
2018-07-15T10:59:36.120Z,190
2018-07-15T11:00:35.866Z,190
2018-07-15T11:01:35.861Z,190
2018-07-15T11:02:36.132Z,190
2018-07-15T11:03:35.626Z,190
2018-07-15T11:04:35.874Z,190
2018-07-15T11:05:36.136Z,185
2018-07-15T11:06:36.042Z,190
2018-07-15T11:07:36.119Z,185
2018-07-15T11:08:35.872Z,180
2018-07-15T11:09:36.129Z,175
2018-07-15T11:10:35.876Z,170
2018-07-15T11:11:35.874Z,170
2018-07-15T11:12:35.881Z,170
2018-07-15T11:13:36.543Z,170
2018-07-15T11:14:35.904Z,170
2018-07-15T11:15:36.036Z,170
2018-07-15T11:16:36.284Z,170
2018-07-15T11:17:36.128Z,165
2018-07-15T11:18:36.152Z,165
2018-07-15T11:19:36.153Z,165
2018-07-15T11:20:35.888Z,165
2018-07-15T11:21:35.631Z,165
2018-07-15T11:22:36.155Z,165
2018-07-15T11:23:36.141Z,165
2018-07-15T11:24:36.141Z,165
2018-07-15T11:25:35.890Z,170
2018-07-15T11:26:36.148Z,170
2018-07-15T11:27:35.642Z,170
2018-07-15T11:28:36.165Z,170
2018-07-15T11:29:35.908Z,170
2018-07-15T11:30:36.163Z,170
2018-07-15T11:31:36.509Z,170
2018-07-15T11:32:36.150Z,170
2018-07-15T11:33:36.165Z,170
2018-07-15T11:34:36.165Z,170
2018-07-15T11:35:35.915Z,170
2018-07-15T11:36:36.151Z,170
2018-07-15T11:37:36.168Z,175
2018-07-15T11:38:36.162Z,175
2018-07-15T11:39:36.161Z,180
2018-07-15T11:40:35.416Z,175
2018-07-15T11:41:35.912Z,175
2018-07-15T11:42:36.169Z,170
2018-07-15T11:43:36.418Z,170
2018-07-15T11:44:35.663Z,170
2018-07-15T11:45:36.170Z,165
2018-07-15T11:46:35.915Z,165
2018-07-15T11:47:36.192Z,165
2018-07-15T11:48:36.165Z,165
2018-07-15T11:49:35.918Z,165
2018-07-15T11:50:36.173Z,160
2018-07-15T11:51:35.924Z,160
2018-07-15T11:52:36.183Z,160
2018-07-15T11:53:35.667Z,160
2018-07-15T11:54:36.696Z,160
2018-07-15T11:55:35.925Z,160
2018-07-15T11:56:36.175Z,160
2018-07-15T11:57:35.670Z,160
2018-07-15T11:58:36.178Z,160
2018-07-15T11:59:36.199Z,160
2018-07-15T12:00:36.207Z,165
2018-07-15T12:01:36.287Z,160
2018-07-15T12:02:36.199Z,160
2018-07-15T12:03:36.181Z,160
2018-07-15T12:04:36.185Z,160
2018-07-15T12:05:36.195Z,160
2018-07-15T12:06:35.698Z,160
2018-07-15T12:07:36.185Z,165
2018-07-15T12:08:35.427Z,165
2018-07-15T12:09:35.944Z,165
2018-07-15T12:10:36.192Z,165
2018-07-15T12:11:35.936Z,165
2018-07-15T12:12:35.938Z,165
2018-07-15T12:13:35.945Z,165
2018-07-15T12:14:36.444Z,160
2018-07-15T12:15:35.963Z,160
2018-07-15T12:16:35.952Z,160
2018-07-15T12:17:36.263Z,160
2018-07-15T12:18:36.189Z,160
2018-07-15T12:19:36.205Z,160
2018-07-15T12:20:35.916Z,160
2018-07-15T12:21:35.980Z,160
2018-07-15T12:22:35.944Z,165
2018-07-15T12:23:36.196Z,160
2018-07-15T12:24:36.196Z,165
2018-07-15T12:25:36.198Z,155
2018-07-15T12:26:36.203Z,155
2018-07-15T12:27:35.946Z,155
2018-07-15T12:28:36.216Z,155
2018-07-15T12:29:35.979Z,155
2018-07-15T12:30:35.996Z,150
2018-07-15T12:31:36.228Z,155
2018-07-15T12:32:35.758Z,150
2018-07-15T12:33:35.445Z,155
2018-07-15T12:34:35.446Z,155
2018-07-15T12:35:36.213Z,155
2018-07-15T12:36:36.210Z,155
2018-07-15T12:37:36.209Z,155
2018-07-15T12:38:36.214Z,155
2018-07-15T12:39:35.959Z,155
2018-07-15T12:40:35.703Z,150
2018-07-15T12:41:36.204Z,155
2018-07-15T12:42:35.709Z,155
2018-07-15T12:43:36.626Z,155
2018-07-15T12:44:35.457Z,155
2018-07-15T12:45:35.964Z,150
2018-07-15T12:46:36.208Z,150
2018-07-15T12:47:36.231Z,150
2018-07-15T12:48:36.236Z,150
2018-07-15T12:49:36.220Z,150
2018-07-15T12:50:36.219Z,150
2018-07-15T12:51:35.982Z,150
2018-07-15T12:52:35.965Z,150
2018-07-15T12:53:35.976Z,150
2018-07-15T12:54:36.215Z,150
2018-07-15T12:55:36.223Z,150
2018-07-15T12:56:35.718Z,150
2018-07-15T12:57:36.236Z,150
2018-07-15T12:58:35.972Z,145
2018-07-15T12:59:35.715Z,150
2018-07-15T13:00:36.226Z,150
2018-07-15T13:01:36.231Z,145
2018-07-15T13:02:36.249Z,145
2018-07-15T13:03:35.986Z,145
2018-07-15T13:04:35.984Z,150
2018-07-15T13:05:36.246Z,145
2018-07-15T13:06:35.730Z,145
2018-07-15T13:07:36.360Z,145
2018-07-15T13:08:35.731Z,150
2018-07-15T13:09:35.734Z,150
2018-07-15T13:10:36.239Z,150
2018-07-15T13:11:36.647Z,150
2018-07-15T13:12:35.993Z,150
2018-07-15T13:13:35.994Z,145
2018-07-15T13:14:36.248Z,145
2018-07-15T13:15:36.235Z,150
2018-07-15T13:16:36.395Z,150
2018-07-15T13:17:36.492Z,150
2018-07-15T13:18:36.239Z,150
2018-07-15T13:19:35.747Z,150
2018-07-15T13:20:36.275Z,150
2018-07-15T13:21:36.242Z,145
2018-07-15T13:22:36.272Z,145
2018-07-15T13:23:36.246Z,145
2018-07-15T13:24:35.743Z,145
2018-07-15T13:25:36.247Z,145
2018-07-15T13:26:35.749Z,145
2018-07-15T13:27:36.246Z,145
2018-07-15T13:28:36.245Z,140
2018-07-15T13:29:36.360Z,140
2018-07-15T13:30:36.253Z,145
2018-07-15T13:31:36.000Z,145
2018-07-15T13:32:36.265Z,145
2018-07-15T13:33:36.268Z,145
2018-07-15T13:34:36.251Z,145
2018-07-15T13:35:35.503Z,145
2018-07-15T13:36:36.261Z,145
2018-07-15T13:37:36.007Z,145
2018-07-15T13:38:36.006Z,145
2018-07-15T13:39:35.769Z,145
2018-07-15T13:40:36.259Z,145
2018-07-15T13:41:36.211Z,145
2018-07-15T13:42:36.262Z,145
2018-07-15T13:43:36.260Z,145
2018-07-15T13:44:36.007Z,145
2018-07-15T13:45:36.032Z,145
2018-07-15T13:46:36.270Z,145
2018-07-15T13:47:36.027Z,145
2018-07-15T13:48:36.513Z,145
2018-07-15T13:49:36.270Z,145
2018-07-15T13:50:36.268Z,145
2018-07-15T13:51:36.265Z,145
2018-07-15T13:52:36.281Z,140
2018-07-15T13:53:36.528Z,140
2018-07-15T13:54:36.268Z,140
2018-07-15T13:55:36.270Z,145